sensor_id;sensor_type;location;lat;lon;timestamp;temperature;humidity
63013;DHT22;62113;45.624;11.700;2023-08-24T00:00:04;31.30;53.70
63013;DHT22;62113;45.624;11.700;2023-08-24T00:02:30;31.30;53.80
63013;DHT22;62113;45.624;11.700;2023-08-24T00:04:56;31.30;53.50
63013;DHT22;62113;45.624;11.700;2023-08-24T00:07:22;31.30;53.40
63013;DHT22;62113;45.624;11.700;2023-08-24T00:09:47;31.30;53.40
63013;DHT22;62113;45.624;11.700;2023-08-24T00:12:13;31.30;53.30
63013;DHT22;62113;45.624;11.700;2023-08-24T00:14:38;31.20;53.20
63013;DHT22;62113;45.624;11.700;2023-08-24T00:17:04;31.20;53.10
63013;DHT22;62113;45.624;11.700;2023-08-24T00:19:30;31.20;53.20
63013;DHT22;62113;45.624;11.700;2023-08-24T00:21:55;31.20;53.10
63013;DHT22;62113;45.624;11.700;2023-08-24T00:24:21;31.20;53.10
63013;DHT22;62113;45.624;11.700;2023-08-24T00:26:46;31.20;53.00
63013;DHT22;62113;45.624;11.700;2023-08-24T00:29:12;31.20;53.00
63013;DHT22;62113;45.624;11.700;2023-08-24T00:31:37;31.20;52.90
63013;DHT22;62113;45.624;11.700;2023-08-24T00:34:03;31.10;52.80
63013;DHT22;62113;45.624;11.700;2023-08-24T00:36:28;31.10;52.80
63013;DHT22;62113;45.624;11.700;2023-08-24T00:38:54;31.10;53.00
63013;DHT22;62113;45.624;11.700;2023-08-24T00:41:19;31.10;53.20
63013;DHT22;62113;45.624;11.700;2023-08-24T00:43:46;31.00;53.10
63013;DHT22;62113;45.624;11.700;2023-08-24T00:46:12;31.00;53.30
63013;DHT22;62113;45.624;11.700;2023-08-24T00:48:38;31.00;53.30
63013;DHT22;62113;45.624;11.700;2023-08-24T00:51:04;31.00;53.30
63013;DHT22;62113;45.624;11.700;2023-08-24T00:53:29;30.90;53.40
63013;DHT22;62113;45.624;11.700;2023-08-24T00:55:56;31.00;53.50
63013;DHT22;62113;45.624;11.700;2023-08-24T00:58:21;30.90;53.80
63013;DHT22;62113;45.624;11.700;2023-08-24T01:00:50;30.90;53.30
63013;DHT22;62113;45.624;11.700;2023-08-24T01:03:16;30.90;53.30
63013;DHT22;62113;45.624;11.700;2023-08-24T01:05:42;30.80;53.70
63013;DHT22;62113;45.624;11.700;2023-08-24T01:08:08;30.80;53.50
63013;DHT22;62113;45.624;11.700;2023-08-24T01:11:18;30.70;54.30
63013;DHT22;62113;45.624;11.700;2023-08-24T01:13:38;30.70;53.60
63013;DHT22;62113;45.624;11.700;2023-08-24T01:19:06;30.60;53.60
63013;DHT22;62113;45.624;11.700;2023-08-24T01:21:32;30.60;53.70
63013;DHT22;62113;45.624;11.700;2023-08-24T01:26:32;30.50;53.70
63013;DHT22;62113;45.624;11.700;2023-08-24T01:28:58;30.50;53.70
63013;DHT22;62113;45.624;11.700;2023-08-24T01:31:24;30.50;53.80
63013;DHT22;62113;45.624;11.700;2023-08-24T01:33:49;30.50;53.80
63013;DHT22;62113;45.624;11.700;2023-08-24T01:36:15;30.50;53.80
63013;DHT22;62113;45.624;11.700;2023-08-24T01:38:45;30.50;53.70
63013;DHT22;62113;45.624;11.700;2023-08-24T01:41:24;30.50;53.90
63013;DHT22;62113;45.624;11.700;2023-08-24T01:43:54;30.50;53.70
63013;DHT22;62113;45.624;11.700;2023-08-24T01:46:22;30.50;53.80
63013;DHT22;62113;45.624;11.700;2023-08-24T01:48:49;30.50;54.10
63013;DHT22;62113;45.624;11.700;2023-08-24T01:51:16;30.50;53.70
63013;DHT22;62113;45.624;11.700;2023-08-24T01:53:42;30.50;53.80
63013;DHT22;62113;45.624;11.700;2023-08-24T01:56:08;30.40;53.70
63013;DHT22;62113;45.624;11.700;2023-08-24T01:58:34;30.40;53.70
63013;DHT22;62113;45.624;11.700;2023-08-24T02:01:00;30.40;53.80
63013;DHT22;62113;45.624;11.700;2023-08-24T02:03:25;30.40;53.80
63013;DHT22;62113;45.624;11.700;2023-08-24T02:05:51;30.40;53.90
63013;DHT22;62113;45.624;11.700;2023-08-24T02:08:16;30.30;53.80
63013;DHT22;62113;45.624;11.700;2023-08-24T02:10:42;30.30;54.20
63013;DHT22;62113;45.624;11.700;2023-08-24T02:13:07;30.30;54.00
63013;DHT22;62113;45.624;11.700;2023-08-24T02:15:33;30.30;54.30
63013;DHT22;62113;45.624;11.700;2023-08-24T02:17:59;30.30;54.40
63013;DHT22;62113;45.624;11.700;2023-08-24T02:20:24;30.20;54.50
63013;DHT22;62113;45.624;11.700;2023-08-24T02:22:50;30.20;54.30
63013;DHT22;62113;45.624;11.700;2023-08-24T02:25:15;30.20;54.10
63013;DHT22;62113;45.624;11.700;2023-08-24T02:27:41;30.20;54.10
63013;DHT22;62113;45.624;11.700;2023-08-24T02:30:06;30.20;54.10
63013;DHT22;62113;45.624;11.700;2023-08-24T02:32:32;30.20;54.40
63013;DHT22;62113;45.624;11.700;2023-08-24T02:34:57;30.20;54.20
63013;DHT22;62113;45.624;11.700;2023-08-24T02:37:23;30.10;54.20
63013;DHT22;62113;45.624;11.700;2023-08-24T02:39:49;30.10;54.40
63013;DHT22;62113;45.624;11.700;2023-08-24T02:42:14;30.10;54.50
63013;DHT22;62113;45.624;11.700;2023-08-24T02:44:40;30.10;54.40
63013;DHT22;62113;45.624;11.700;2023-08-24T02:47:06;30.10;54.40
63013;DHT22;62113;45.624;11.700;2023-08-24T02:49:31;30.10;54.50
63013;DHT22;62113;45.624;11.700;2023-08-24T02:51:56;30.10;54.70
63013;DHT22;62113;45.624;11.700;2023-08-24T02:54:22;30.10;54.80
63013;DHT22;62113;45.624;11.700;2023-08-24T02:56:47;30.00;54.70
63013;DHT22;62113;45.624;11.700;2023-08-24T02:59:13;30.00;54.90
63013;DHT22;62113;45.624;11.700;2023-08-24T03:01:39;29.90;54.70
63013;DHT22;62113;45.624;11.700;2023-08-24T03:04:06;29.90;54.80
63013;DHT22;62113;45.624;11.700;2023-08-24T03:06:32;29.90;54.90
63013;DHT22;62113;45.624;11.700;2023-08-24T03:08:59;29.80;55.00
63013;DHT22;62113;45.624;11.700;2023-08-24T03:11:24;29.80;55.30
63013;DHT22;62113;45.624;11.700;2023-08-24T03:13:50;29.70;55.30
63013;DHT22;62113;45.624;11.700;2023-08-24T03:16:15;29.70;55.10
63013;DHT22;62113;45.624;11.700;2023-08-24T03:18:41;29.70;55.40
63013;DHT22;62113;45.624;11.700;2023-08-24T03:21:06;29.70;55.40
63013;DHT22;62113;45.624;11.700;2023-08-24T03:23:32;29.70;55.20
63013;DHT22;62113;45.624;11.700;2023-08-24T03:25:57;29.70;55.40
63013;DHT22;62113;45.624;11.700;2023-08-24T03:28:23;29.70;55.80
63013;DHT22;62113;45.624;11.700;2023-08-24T03:30:51;29.70;55.70
63013;DHT22;62113;45.624;11.700;2023-08-24T03:33:17;29.60;55.70
63013;DHT22;62113;45.624;11.700;2023-08-24T03:35:43;29.60;55.90
63013;DHT22;62113;45.624;11.700;2023-08-24T03:38:08;29.60;55.60
63013;DHT22;62113;45.624;11.700;2023-08-24T03:40:34;29.60;55.90
63013;DHT22;62113;45.624;11.700;2023-08-24T03:43:01;29.50;55.80
63013;DHT22;62113;45.624;11.700;2023-08-24T03:45:26;29.50;55.90
63013;DHT22;62113;45.624;11.700;2023-08-24T03:47:52;29.40;55.90
63013;DHT22;62113;45.624;11.700;2023-08-24T03:50:17;29.50;56.50
63013;DHT22;62113;45.624;11.700;2023-08-24T03:52:43;29.50;56.40
63013;DHT22;62113;45.624;11.700;2023-08-24T03:55:08;29.50;56.00
63013;DHT22;62113;45.624;11.700;2023-08-24T03:57:34;29.50;56.10
63013;DHT22;62113;45.624;11.700;2023-08-24T04:00:00;29.50;56.30
63013;DHT22;62113;45.624;11.700;2023-08-24T04:02:25;29.40;56.50
63013;DHT22;62113;45.624;11.700;2023-08-24T04:04:52;29.50;56.60
63013;DHT22;62113;45.624;11.700;2023-08-24T04:07:17;29.50;56.20
63013;DHT22;62113;45.624;11.700;2023-08-24T04:09:43;29.40;56.00
63013;DHT22;62113;45.624;11.700;2023-08-24T04:12:08;29.40;56.00
63013;DHT22;62113;45.624;11.700;2023-08-24T04:14:34;29.40;56.30
63013;DHT22;62113;45.624;11.700;2023-08-24T04:16:59;29.40;56.10
63013;DHT22;62113;45.624;11.700;2023-08-24T04:19:25;29.40;56.10
63013;DHT22;62113;45.624;11.700;2023-08-24T04:21:50;29.40;56.10
63013;DHT22;62113;45.624;11.700;2023-08-24T04:24:16;29.40;56.00
63013;DHT22;62113;45.624;11.700;2023-08-24T04:26:41;29.30;56.10
63013;DHT22;62113;45.624;11.700;2023-08-24T04:29:06;29.30;56.20
63013;DHT22;62113;45.624;11.700;2023-08-24T04:31:32;29.30;56.60
63013;DHT22;62113;45.624;11.700;2023-08-24T04:33:58;29.30;57.50
63013;DHT22;62113;45.624;11.700;2023-08-24T04:36:23;29.20;56.60
63013;DHT22;62113;45.624;11.700;2023-08-24T04:38:48;29.20;56.50
63013;DHT22;62113;45.624;11.700;2023-08-24T04:41:14;29.20;56.80
63013;DHT22;62113;45.624;11.700;2023-08-24T04:43:40;29.20;56.90
63013;DHT22;62113;45.624;11.700;2023-08-24T04:46:06;29.20;56.80
63013;DHT22;62113;45.624;11.700;2023-08-24T04:48:31;29.20;57.00
63013;DHT22;62113;45.624;11.700;2023-08-24T04:50:59;29.20;57.00
63013;DHT22;62113;45.624;11.700;2023-08-24T04:53:25;29.20;57.10
63013;DHT22;62113;45.624;11.700;2023-08-24T04:55:51;29.20;57.20
63013;DHT22;62113;45.624;11.700;2023-08-24T04:58:17;29.20;57.10
63013;DHT22;62113;45.624;11.700;2023-08-24T05:00:43;29.30;57.10
63013;DHT22;62113;45.624;11.700;2023-08-24T05:03:08;29.30;56.90
63013;DHT22;62113;45.624;11.700;2023-08-24T05:05:34;29.30;56.80
63013;DHT22;62113;45.624;11.700;2023-08-24T05:08:00;29.40;56.70
63013;DHT22;62113;45.624;11.700;2023-08-24T05:10:29;29.50;56.90
63013;DHT22;62113;45.624;11.700;2023-08-24T05:12:55;29.60;56.70
63013;DHT22;62113;45.624;11.700;2023-08-24T05:15:20;29.60;56.40
63013;DHT22;62113;45.624;11.700;2023-08-24T05:17:46;29.70;56.60
63013;DHT22;62113;45.624;11.700;2023-08-24T05:20:11;29.70;56.90
63013;DHT22;62113;45.624;11.700;2023-08-24T05:22:37;29.60;57.30
63013;DHT22;62113;45.624;11.700;2023-08-24T05:25:03;29.40;57.30
63013;DHT22;62113;45.624;11.700;2023-08-24T05:27:29;29.40;55.90
63013;DHT22;62113;45.624;11.700;2023-08-24T05:29:55;29.40;57.40
63013;DHT22;62113;45.624;11.700;2023-08-24T05:32:21;29.60;57.30
63013;DHT22;62113;45.624;11.700;2023-08-24T05:34:46;29.80;57.40
63013;DHT22;62113;45.624;11.700;2023-08-24T05:37:12;30.00;57.00
63013;DHT22;62113;45.624;11.700;2023-08-24T05:39:37;30.20;56.40
63013;DHT22;62113;45.624;11.700;2023-08-24T05:42:03;30.40;56.10
63013;DHT22;62113;45.624;11.700;2023-08-24T05:44:29;30.50;55.80
63013;DHT22;62113;45.624;11.700;2023-08-24T05:46:54;30.70;55.40
63013;DHT22;62113;45.624;11.700;2023-08-24T05:49:20;30.80;55.20
63013;DHT22;62113;45.624;11.700;2023-08-24T05:51:45;30.90;54.80
63013;DHT22;62113;45.624;11.700;2023-08-24T05:54:11;31.10;54.80
63013;DHT22;62113;45.624;11.700;2023-08-24T05:56:38;31.20;54.30
63013;DHT22;62113;45.624;11.700;2023-08-24T05:59:04;31.40;54.10
63013;DHT22;62113;45.624;11.700;2023-08-24T06:01:29;31.70;53.60
63013;DHT22;62113;45.624;11.700;2023-08-24T06:03:55;32.10;53.60
63013;DHT22;62113;45.624;11.700;2023-08-24T06:06:20;32.90;52.80
63013;DHT22;62113;45.624;11.700;2023-08-24T06:08:46;33.90;51.80
63013;DHT22;62113;45.624;11.700;2023-08-24T06:11:11;34.90;49.90
63013;DHT22;62113;45.624;11.700;2023-08-24T06:13:37;35.70;43.90
63013;DHT22;62113;45.624;11.700;2023-08-24T06:16:02;36.10;43.90
63013;DHT22;62113;45.624;11.700;2023-08-24T06:18:28;36.30;42.20
63013;DHT22;62113;45.624;11.700;2023-08-24T06:20:53;36.50;42.20
63013;DHT22;62113;45.624;11.700;2023-08-24T06:23:19;36.80;41.40
63013;DHT22;62113;45.624;11.700;2023-08-24T06:25:45;37.20;41.80
63013;DHT22;62113;45.624;11.700;2023-08-24T06:28:11;37.40;40.80
63013;DHT22;62113;45.624;11.700;2023-08-24T06:30:37;37.70;40.30
63013;DHT22;62113;45.624;11.700;2023-08-24T06:33:04;38.20;39.40
63013;DHT22;62113;45.624;11.700;2023-08-24T06:35:29;38.40;39.40
63013;DHT22;62113;45.624;11.700;2023-08-24T06:37:55;38.80;38.90
63013;DHT22;62113;45.624;11.700;2023-08-24T06:40:21;39.00;38.20
63013;DHT22;62113;45.624;11.700;2023-08-24T06:42:46;39.20;37.80
63013;DHT22;62113;45.624;11.700;2023-08-24T06:45:11;39.70;36.90
63013;DHT22;62113;45.624;11.700;2023-08-24T06:47:37;40.00;36.70
63013;DHT22;62113;45.624;11.700;2023-08-24T06:50:03;40.10;36.90
63013;DHT22;62113;45.624;11.700;2023-08-24T06:52:28;40.30;35.90
63013;DHT22;62113;45.624;11.700;2023-08-24T06:54:54;40.50;36.50
63013;DHT22;62113;45.624;11.700;2023-08-24T06:57:21;40.70;35.60
63013;DHT22;62113;45.624;11.700;2023-08-24T06:59:47;40.90;35.50
63013;DHT22;62113;45.624;11.700;2023-08-24T07:02:12;41.20;35.40
63013;DHT22;62113;45.624;11.700;2023-08-24T07:04:38;41.20;34.80
63013;DHT22;62113;45.624;11.700;2023-08-24T07:07:05;41.40;35.00
63013;DHT22;62113;45.624;11.700;2023-08-24T07:09:31;41.80;34.50
63013;DHT22;62113;45.624;11.700;2023-08-24T07:11:56;42.20;33.60
63013;DHT22;62113;45.624;11.700;2023-08-24T07:14:22;42.50;33.70
63013;DHT22;62113;45.624;11.700;2023-08-24T07:16:47;42.80;32.60
63013;DHT22;62113;45.624;11.700;2023-08-24T07:19:13;42.60;32.90
63013;DHT22;62113;45.624;11.700;2023-08-24T07:21:38;43.20;32.00
63013;DHT22;62113;45.624;11.700;2023-08-24T07:24:04;43.20;32.10
63013;DHT22;62113;45.624;11.700;2023-08-24T07:26:30;43.40;32.00
63013;DHT22;62113;45.624;11.700;2023-08-24T07:28:55;43.50;32.10
63013;DHT22;62113;45.624;11.700;2023-08-24T07:31:21;43.60;31.60
63013;DHT22;62113;45.624;11.700;2023-08-24T07:33:48;43.90;30.90
63013;DHT22;62113;45.624;11.700;2023-08-24T07:36:14;44.00;31.00
63013;DHT22;62113;45.624;11.700;2023-08-24T07:38:39;44.20;30.20
63013;DHT22;62113;45.624;11.700;2023-08-24T07:41:05;44.40;30.40
63013;DHT22;62113;45.624;11.700;2023-08-24T07:43:32;44.60;29.50
63013;DHT22;62113;45.624;11.700;2023-08-24T07:45:58;44.80;30.30
63013;DHT22;62113;45.624;11.700;2023-08-24T07:48:23;44.90;29.20
63013;DHT22;62113;45.624;11.700;2023-08-24T07:50:49;44.90;29.40
63013;DHT22;62113;45.624;11.700;2023-08-24T07:53:14;45.20;29.10
63013;DHT22;62113;45.624;11.700;2023-08-24T07:55:40;45.40;28.30
63013;DHT22;62113;45.624;11.700;2023-08-24T07:58:06;45.70;27.60
63013;DHT22;62113;45.624;11.700;2023-08-24T08:00:31;46.00;27.90
63013;DHT22;62113;45.624;11.700;2023-08-24T08:02:57;46.20;28.10
63013;DHT22;62113;45.624;11.700;2023-08-24T08:05:23;46.20;27.50
63013;DHT22;62113;45.624;11.700;2023-08-24T08:07:48;46.20;27.10
63013;DHT22;62113;45.624;11.700;2023-08-24T08:10:14;46.20;27.80
63013;DHT22;62113;45.624;11.700;2023-08-24T08:12:42;46.40;27.00
63013;DHT22;62113;45.624;11.700;2023-08-24T08:15:08;46.50;27.20
63013;DHT22;62113;45.624;11.700;2023-08-24T08:17:33;46.50;27.20
63013;DHT22;62113;45.624;11.700;2023-08-24T08:19:59;46.50;27.80
63013;DHT22;62113;45.624;11.700;2023-08-24T08:22:24;46.60;27.40
63013;DHT22;62113;45.624;11.700;2023-08-24T08:24:53;46.00;27.40
63013;DHT22;62113;45.624;11.700;2023-08-24T08:27:22;45.70;27.60
63013;DHT22;62113;45.624;11.700;2023-08-24T08:29:47;46.10;27.10
63013;DHT22;62113;45.624;11.700;2023-08-24T08:32:13;45.90;27.10
63013;DHT22;62113;45.624;11.700;2023-08-24T08:34:39;45.90;27.10
63013;DHT22;62113;45.624;11.700;2023-08-24T08:37:04;46.10;27.00
63013;DHT22;62113;45.624;11.700;2023-08-24T08:39:30;45.50;27.20
63013;DHT22;62113;45.624;11.700;2023-08-24T08:44:30;44.70;28.40
63013;DHT22;62113;45.624;11.700;2023-08-24T08:46:56;43.70;29.30
63013;DHT22;62113;45.624;11.700;2023-08-24T08:49:22;42.70;30.60
63013;DHT22;62113;45.624;11.700;2023-08-24T08:51:48;41.90;31.40
63013;DHT22;62113;45.624;11.700;2023-08-24T08:54:14;41.30;32.80
63013;DHT22;62113;45.624;11.700;2023-08-24T08:56:39;40.70;32.70
63013;DHT22;62113;45.624;11.700;2023-08-24T08:59:06;39.80;34.30
63013;DHT22;62113;45.624;11.700;2023-08-24T09:01:32;39.40;33.90
63013;DHT22;62113;45.624;11.700;2023-08-24T09:03:58;39.00;34.00
63013;DHT22;62113;45.624;11.700;2023-08-24T09:06:23;38.80;34.90
63013;DHT22;62113;45.624;11.700;2023-08-24T09:08:49;38.70;35.40
63013;DHT22;62113;45.624;11.700;2023-08-24T09:11:15;38.50;35.40
63013;DHT22;62113;45.624;11.700;2023-08-24T09:13:42;38.40;35.30
63013;DHT22;62113;45.624;11.700;2023-08-24T09:16:08;38.40;36.10
63013;DHT22;62113;45.624;11.700;2023-08-24T09:18:37;38.20;34.50
63013;DHT22;62113;45.624;11.700;2023-08-24T09:21:10;38.30;34.70
63013;DHT22;62113;45.624;11.700;2023-08-24T09:23:37;38.20;36.70
63013;DHT22;62113;45.624;11.700;2023-08-24T09:26:02;38.10;37.90
63013;DHT22;62113;45.624;11.700;2023-08-24T09:28:29;37.80;38.20
63013;DHT22;62113;45.624;11.700;2023-08-24T09:31:00;37.50;39.30
63013;DHT22;62113;45.624;11.700;2023-08-24T09:33:26;37.40;39.60
63013;DHT22;62113;45.624;11.700;2023-08-24T09:35:52;37.30;39.20
63013;DHT22;62113;45.624;11.700;2023-08-24T09:38:21;37.50;39.40
63013;DHT22;62113;45.624;11.700;2023-08-24T09:40:50;37.60;39.80
63013;DHT22;62113;45.624;11.700;2023-08-24T09:43:16;37.70;39.80
63013;DHT22;62113;45.624;11.700;2023-08-24T09:45:51;37.40;39.30
63013;DHT22;62113;45.624;11.700;2023-08-24T09:48:17;37.20;40.90
63013;DHT22;62113;45.624;11.700;2023-08-24T09:50:46;37.10;41.00
63013;DHT22;62113;45.624;11.700;2023-08-24T09:53:19;37.10;40.30
63013;DHT22;62113;45.624;11.700;2023-08-24T09:58:14;37.30;38.70
63013;DHT22;62113;45.624;11.700;2023-08-24T10:00:40;37.60;38.70
63013;DHT22;62113;45.624;11.700;2023-08-24T10:03:06;37.70;38.80
63013;DHT22;62113;45.624;11.700;2023-08-24T10:05:33;37.50;39.60
63013;DHT22;62113;45.624;11.700;2023-08-24T10:08:00;37.40;42.00
63013;DHT22;62113;45.624;11.700;2023-08-24T10:10:27;37.20;41.90
63013;DHT22;62113;45.624;11.700;2023-08-24T10:12:59;37.10;41.00
63013;DHT22;62113;45.624;11.700;2023-08-24T10:15:26;37.10;41.00
63013;DHT22;62113;45.624;11.700;2023-08-24T10:17:51;36.90;41.70
63013;DHT22;62113;45.624;11.700;2023-08-24T10:20:20;37.10;41.70
63013;DHT22;62113;45.624;11.700;2023-08-24T10:22:46;37.10;40.70
63013;DHT22;62113;45.624;11.700;2023-08-24T10:25:11;37.10;40.30
63013;DHT22;62113;45.624;11.700;2023-08-24T10:27:38;37.30;41.90
63013;DHT22;62113;45.624;11.700;2023-08-24T10:30:09;37.30;40.10
63013;DHT22;62113;45.624;11.700;2023-08-24T10:32:35;37.40;40.70
63013;DHT22;62113;45.624;11.700;2023-08-24T10:35:02;37.40;40.40
63013;DHT22;62113;45.624;11.700;2023-08-24T10:37:27;37.60;40.40
63013;DHT22;62113;45.624;11.700;2023-08-24T10:39:53;37.60;40.00
63013;DHT22;62113;45.624;11.700;2023-08-24T10:42:18;37.60;39.90
63013;DHT22;62113;45.624;11.700;2023-08-24T10:44:46;37.60;40.00
63013;DHT22;62113;45.624;11.700;2023-08-24T10:47:21;37.60;39.60
63013;DHT22;62113;45.624;11.700;2023-08-24T10:54:48;37.60;40.20
63013;DHT22;62113;45.624;11.700;2023-08-24T10:57:17;37.70;40.20
63013;DHT22;62113;45.624;11.700;2023-08-24T10:59:44;37.70;40.50
63013;DHT22;62113;45.624;11.700;2023-08-24T11:02:10;37.70;39.90
63013;DHT22;62113;45.624;11.700;2023-08-24T11:05:03;37.70;38.50
63013;DHT22;62113;45.624;11.700;2023-08-24T11:07:27;37.60;39.80
63013;DHT22;62113;45.624;11.700;2023-08-24T11:09:53;37.50;38.50
63013;DHT22;62113;45.624;11.700;2023-08-24T11:12:18;37.40;39.20
63013;DHT22;62113;45.624;11.700;2023-08-24T11:14:51;37.40;39.30
63013;DHT22;62113;45.624;11.700;2023-08-24T11:17:20;37.50;38.80
63013;DHT22;62113;45.624;11.700;2023-08-24T11:19:49;37.60;40.20
63013;DHT22;62113;45.624;11.700;2023-08-24T11:22:16;37.30;41.20
63013;DHT22;62113;45.624;11.700;2023-08-24T11:24:41;37.20;40.40
63013;DHT22;62113;45.624;11.700;2023-08-24T11:27:07;37.20;39.80
63013;DHT22;62113;45.624;11.700;2023-08-24T11:29:33;37.20;40.00
63013;DHT22;62113;45.624;11.700;2023-08-24T11:31:59;37.20;40.30
63013;DHT22;62113;45.624;11.700;2023-08-24T11:34:25;37.20;40.40
63013;DHT22;62113;45.624;11.700;2023-08-24T11:36:50;37.20;40.40
63013;DHT22;62113;45.624;11.700;2023-08-24T11:39:16;37.30;40.80
63013;DHT22;62113;45.624;11.700;2023-08-24T11:41:43;37.40;40.30
63013;DHT22;62113;45.624;11.700;2023-08-24T11:44:10;37.50;40.50
63013;DHT22;62113;45.624;11.700;2023-08-24T11:46:35;37.50;40.30
63013;DHT22;62113;45.624;11.700;2023-08-24T11:49:04;37.50;38.70
63013;DHT22;62113;45.624;11.700;2023-08-24T11:51:29;37.60;38.60
63013;DHT22;62113;45.624;11.700;2023-08-24T11:53:57;37.60;39.10
63013;DHT22;62113;45.624;11.700;2023-08-24T11:56:24;37.60;37.60
63013;DHT22;62113;45.624;11.700;2023-08-24T11:58:49;37.70;39.10
63013;DHT22;62113;45.624;11.700;2023-08-24T12:01:16;37.70;38.80
63013;DHT22;62113;45.624;11.700;2023-08-24T12:03:42;37.60;37.90
63013;DHT22;62113;45.624;11.700;2023-08-24T12:06:14;37.50;37.90
63013;DHT22;62113;45.624;11.700;2023-08-24T12:08:41;37.40;37.60
63013;DHT22;62113;45.624;11.700;2023-08-24T12:11:10;37.30;38.00
63013;DHT22;62113;45.624;11.700;2023-08-24T12:13:36;37.30;37.40
63013;DHT22;62113;45.624;11.700;2023-08-24T12:16:02;37.30;38.00
63013;DHT22;62113;45.624;11.700;2023-08-24T12:18:27;37.40;38.30
63013;DHT22;62113;45.624;11.700;2023-08-24T12:20:53;37.50;38.00
63013;DHT22;62113;45.624;11.700;2023-08-24T12:23:18;37.60;39.20
63013;DHT22;62113;45.624;11.700;2023-08-24T12:25:44;37.50;38.30
63013;DHT22;62113;45.624;11.700;2023-08-24T12:28:14;37.50;38.80
63013;DHT22;62113;45.624;11.700;2023-08-24T12:30:43;37.50;38.90
63013;DHT22;62113;45.624;11.700;2023-08-24T12:33:08;37.60;39.60
63013;DHT22;62113;45.624;11.700;2023-08-24T12:35:34;37.50;38.60
63013;DHT22;62113;45.624;11.700;2023-08-24T12:37:59;37.60;38.40
63013;DHT22;62113;45.624;11.700;2023-08-24T12:40:25;37.60;38.60
63013;DHT22;62113;45.624;11.700;2023-08-24T12:42:50;37.60;38.70
63013;DHT22;62113;45.624;11.700;2023-08-24T12:45:16;37.50;39.10
63013;DHT22;62113;45.624;11.700;2023-08-24T12:47:41;37.60;39.10
63013;DHT22;62113;45.624;11.700;2023-08-24T12:50:07;37.60;38.40
63013;DHT22;62113;45.624;11.700;2023-08-24T12:52:33;37.40;38.90
63013;DHT22;62113;45.624;11.700;2023-08-24T12:54:59;37.10;37.60
63013;DHT22;62113;45.624;11.700;2023-08-24T12:57:24;37.00;38.20
63013;DHT22;62113;45.624;11.700;2023-08-24T12:59:50;37.10;38.60
63013;DHT22;62113;45.624;11.700;2023-08-24T13:02:17;37.20;39.10
63013;DHT22;62113;45.624;11.700;2023-08-24T13:04:42;37.20;39.60
63013;DHT22;62113;45.624;11.700;2023-08-24T13:07:08;37.20;38.00
63013;DHT22;62113;45.624;11.700;2023-08-24T13:09:34;37.20;37.90
63013;DHT22;62113;45.624;11.700;2023-08-24T13:12:00;37.20;38.10
63013;DHT22;62113;45.624;11.700;2023-08-24T13:14:25;37.50;36.80
63013;DHT22;62113;45.624;11.700;2023-08-24T13:16:51;37.60;38.00
63013;DHT22;62113;45.624;11.700;2023-08-24T13:19:16;37.60;37.20
63013;DHT22;62113;45.624;11.700;2023-08-24T13:21:42;37.70;37.20
63013;DHT22;62113;45.624;11.700;2023-08-24T13:24:07;37.70;38.80
63013;DHT22;62113;45.624;11.700;2023-08-24T13:26:32;37.60;37.20
63013;DHT22;62113;45.624;11.700;2023-08-24T13:28:58;37.50;37.20
63013;DHT22;62113;45.624;11.700;2023-08-24T13:31:26;37.40;38.40
63013;DHT22;62113;45.624;11.700;2023-08-24T13:33:51;37.20;38.20
63013;DHT22;62113;45.624;11.700;2023-08-24T13:36:17;37.10;38.30
63013;DHT22;62113;45.624;11.700;2023-08-24T13:38:43;37.00;38.90
63013;DHT22;62113;45.624;11.700;2023-08-24T13:41:08;37.00;38.20
63013;DHT22;62113;45.624;11.700;2023-08-24T13:43:34;37.00;37.80
63013;DHT22;62113;45.624;11.700;2023-08-24T13:45:59;37.10;40.00
63013;DHT22;62113;45.624;11.700;2023-08-24T13:48:25;37.20;40.50
63013;DHT22;62113;45.624;11.700;2023-08-24T13:50:51;37.20;38.00
63013;DHT22;62113;45.624;11.700;2023-08-24T13:53:19;37.00;38.20
63013;DHT22;62113;45.624;11.700;2023-08-24T13:55:45;37.20;38.70
63013;DHT22;62113;45.624;11.700;2023-08-24T13:58:10;37.30;37.20
63013;DHT22;62113;45.624;11.700;2023-08-24T14:00:36;37.40;37.60
63013;DHT22;62113;45.624;11.700;2023-08-24T14:03:02;37.30;37.20
63013;DHT22;62113;45.624;11.700;2023-08-24T14:05:28;37.20;36.20
63013;DHT22;62113;45.624;11.700;2023-08-24T14:07:53;37.30;37.30
63013;DHT22;62113;45.624;11.700;2023-08-24T14:10:19;37.30;38.30
63013;DHT22;62113;45.624;11.700;2023-08-24T14:12:45;37.30;37.60
63013;DHT22;62113;45.624;11.700;2023-08-24T14:15:11;37.30;37.80
63013;DHT22;62113;45.624;11.700;2023-08-24T14:17:36;37.20;38.30
63013;DHT22;62113;45.624;11.700;2023-08-24T14:20:02;37.30;36.80
63013;DHT22;62113;45.624;11.700;2023-08-24T14:22:29;37.30;38.20
63013;DHT22;62113;45.624;11.700;2023-08-24T14:24:54;37.40;36.60
63013;DHT22;62113;45.624;11.700;2023-08-24T14:27:20;37.30;37.30
63013;DHT22;62113;45.624;11.700;2023-08-24T14:29:45;37.30;36.20
63013;DHT22;62113;45.624;11.700;2023-08-24T14:32:11;37.20;37.30
63013;DHT22;62113;45.624;11.700;2023-08-24T14:34:36;37.20;37.40
63013;DHT22;62113;45.624;11.700;2023-08-24T14:37:02;37.00;37.80
63013;DHT22;62113;45.624;11.700;2023-08-24T14:39:28;37.00;37.60
63013;DHT22;62113;45.624;11.700;2023-08-24T14:41:53;37.00;36.70
63013;DHT22;62113;45.624;11.700;2023-08-24T14:44:20;37.10;37.70
63013;DHT22;62113;45.624;11.700;2023-08-24T14:46:45;37.00;38.10
63013;DHT22;62113;45.624;11.700;2023-08-24T14:49:11;37.00;38.00
63013;DHT22;62113;45.624;11.700;2023-08-24T14:51:36;37.00;37.50
63013;DHT22;62113;45.624;11.700;2023-08-24T14:54:02;36.90;38.80
63013;DHT22;62113;45.624;11.700;2023-08-24T14:56:27;36.90;38.50
63013;DHT22;62113;45.624;11.700;2023-08-24T14:58:53;36.80;39.10
63013;DHT22;62113;45.624;11.700;2023-08-24T15:01:19;36.90;38.40
63013;DHT22;62113;45.624;11.700;2023-08-24T15:03:45;36.90;38.20
63013;DHT22;62113;45.624;11.700;2023-08-24T15:06:10;36.90;38.40
63013;DHT22;62113;45.624;11.700;2023-08-24T15:08:36;36.90;39.00
63013;DHT22;62113;45.624;11.700;2023-08-24T15:11:02;36.90;38.40
63013;DHT22;62113;45.624;11.700;2023-08-24T15:13:28;37.00;39.20
63013;DHT22;62113;45.624;11.700;2023-08-24T15:15:54;36.80;38.90
63013;DHT22;62113;45.624;11.700;2023-08-24T15:18:20;36.80;38.50
63013;DHT22;62113;45.624;11.700;2023-08-24T15:20:46;36.80;40.10
63013;DHT22;62113;45.624;11.700;2023-08-24T15:23:30;36.70;39.90